PWSweather.com
Personal Weather Stations
Station Observations
SHAHALMS1
Eftra, Falkenberg, HA

EftraFalkenberg, HA

Lat: 56.85, Lon: 12.65

Elevation: 140

Station Type:

http://hem.passagen.se/risarp101

High Low Average
Temperature 69.1°F20.6°C 57.6°F14.2°C 62.1°F16.7°C
Dew Point 60.0°F15.6°C 51.7°F10.9°C 56.0°F13.3°C
Winds 5.9 mph 9.5 kmh Calm Calm 2.0 mph SSW3.2 kmh SSW
Wind Gusts 19.0 mph30.6 kmh -- 9.0 mph14.5 kmh
Humidity 95% 61% 81%
Pressure 30.15 in1021.0 mb 29.92 in1013.2 mb -
Precipitation 0.09 in2.3 mm - -
Hour Temp Dew Point Humidity Winds Wind Gusts Pressure Precip Precip Rate Daily Precip Total
12:00 AM 60.8°F16.0°C 51.7°F10.9°C 72% 1.1 mph E1.8 kmh E 4.7 mph7.6 kmh 29.98 in1015.2 mb 0.00 in0.0 mm 0.00 in0.0 mm 0.00 in0.0 mm
12:10 AM 60.8°F16.0°C 51.7°F10.9°C 72% 1.0 mph E1.6 kmh E 10.0 mph16.1 kmh 29.98 in1015.2 mb 0.00 in0.0 mm 0.00 in0.0 mm 0.00 in0.0 mm
12:20 AM 61.0°F16.1°C 51.9°F11.1°C 72% Calm Calm -- 29.98 in1015.2 mb 0.00 in0.0 mm 0.00 in0.0 mm 0.00 in0.0 mm
12:30 AM 60.8°F16.0°C 52.1°F11.2°C 73% 0.5 mph E0.8 kmh E 9.3 mph15.0 kmh 29.98 in1015.2 mb 0.00 in0.0 mm 0.00 in0.0 mm 0.00 in0.0 mm
12:40 AM 60.8°F16.0°C 52.1°F11.2°C 73% 0.8 mph E1.3 kmh E 7.9 mph12.7 kmh 29.98 in1015.2 mb 0.00 in0.0 mm 0.00 in0.0 mm 0.00 in0.0 mm
12:50 AM 60.6°F15.9°C 51.9°F11.1°C 73% 0.2 mph E0.3 kmh E 3.9 mph6.3 kmh 29.95 in1014.2 mb 0.00 in0.0 mm 0.00 in0.0 mm 0.00 in0.0 mm
01:00 AM 60.6°F15.9°C 51.9°F11.1°C 73% 0.8 mph E1.3 kmh E 6.8 mph10.9 kmh 29.95 in1014.2 mb 0.00 in0.0 mm 0.00 in0.0 mm 0.00 in0.0 mm
01:10 AM 60.6°F15.9°C 52.3°F11.3°C 74% 1.2 mph ESE1.9 kmh ESE 6.8 mph10.9 kmh 29.95 in1014.2 mb 0.00 in0.0 mm 0.00 in0.0 mm 0.00 in0.0 mm
01:20 AM 60.4°F15.8°C 52.1°F11.2°C 74% 1.4 mph E2.3 kmh E 6.1 mph9.8 kmh 29.95 in1014.2 mb 0.00 in0.0 mm 0.00 in0.0 mm 0.00 in0.0 mm
01:30 AM 60.4°F15.8°C 52.1°F11.2°C 74% 1.9 mph E3.1 kmh E 6.4 mph10.3 kmh 29.95 in1014.2 mb 0.00 in0.0 mm 0.00 in0.0 mm 0.00 in0.0 mm
01:40 AM 60.4°F15.8°C 52.5°F11.4°C 75% 3.0 mph E4.8 kmh E 7.9 mph12.7 kmh 29.95 in1014.2 mb 0.00 in0.0 mm 0.00 in0.0 mm 0.00 in0.0 mm
01:50 AM 60.4°F15.8°C 52.5°F11.4°C 75% 1.2 mph E1.9 kmh E 6.8 mph10.9 kmh 29.95 in1014.2 mb 0.00 in0.0 mm 0.00 in0.0 mm 0.00 in0.0 mm
02:00 AM 60.3°F15.7°C 52.3°F11.3°C 75% 1.0 mph E1.6 kmh E 6.1 mph9.8 kmh 29.95 in1014.2 mb 0.00 in0.0 mm 0.00 in0.0 mm 0.00 in0.0 mm
02:10 AM 60.1°F15.6°C 52.5°F11.4°C 76% 0.8 mph E1.3 kmh E 5.4 mph8.7 kmh 29.95 in1014.2 mb 0.00 in0.0 mm 0.00 in0.0 mm 0.00 in0.0 mm
02:20 AM 60.1°F15.6°C 52.5°F11.4°C 76% 1.3 mph E2.1 kmh E 8.6 mph13.8 kmh 29.92 in1013.2 mb 0.00 in0.0 mm 0.00 in0.0 mm 0.00 in0.0 mm
02:30 AM 60.1°F15.6°C 52.5°F11.4°C 76% 1.4 mph E2.3 kmh E 6.4 mph10.3 kmh 29.95 in1014.2 mb 0.00 in0.0 mm 0.00 in0.0 mm 0.00 in0.0 mm
02:40 AM 60.1°F15.6°C 52.8°F11.6°C 77% 1.1 mph E1.8 kmh E 8.6 mph13.8 kmh 29.95 in1014.2 mb 0.00 in0.0 mm 0.00 in0.0 mm 0.00 in0.0 mm
02:50 AM 60.1°F15.6°C 52.8°F11.6°C 77% 1.1 mph E1.8 kmh E 8.6 mph13.8 kmh 29.95 in1014.2 mb 0.00 in0.0 mm 0.00 in0.0 mm 0.00 in0.0 mm
03:00 AM 60.1°F15.6°C 52.8°F11.6°C 77% 1.2 mph ESE1.9 kmh ESE 7.5 mph12.1 kmh 29.95 in1014.2 mb 0.00 in0.0 mm 0.00 in0.0 mm 0.00 in0.0 mm
03:10 AM 60.1°F15.6°C 52.8°F11.6°C 77% 0.4 mph SSE0.6 kmh SSE 4.3 mph6.9 kmh 29.95 in1014.2 mb 0.00 in0.0 mm 0.00 in0.0 mm 0.00 in0.0 mm
03:20 AM 60.1°F15.6°C 52.8°F11.6°C 77% 0.6 mph SE1.0 kmh SE 6.4 mph10.3 kmh 29.95 in1014.2 mb 0.00 in0.0 mm 0.00 in0.0 mm 0.00 in0.0 mm
03:30 AM 60.1°F15.6°C 52.8°F11.6°C 77% 0.4 mph SE0.6 kmh SE 5.0 mph8.0 kmh 29.95 in1014.2 mb 0.00 in0.0 mm 0.00 in0.0 mm 0.00 in0.0 mm
03:40 AM 60.1°F15.6°C 52.8°F11.6°C 77% 0.6 mph ESE1.0 kmh ESE 6.1 mph9.8 kmh 29.95 in1014.2 mb 0.00 in0.0 mm 0.00 in0.0 mm 0.00 in0.0 mm
03:50 AM 59.9°F15.5°C 52.7°F11.5°C 77% 0.4 mph ESE0.6 kmh ESE 5.0 mph8.0 kmh 29.95 in1014.2 mb 0.00 in0.0 mm 0.00 in0.0 mm 0.00 in0.0 mm
04:00 AM 59.7°F15.4°C 52.8°F11.6°C 78% 0.9 mph SE1.4 kmh SE 6.4 mph10.3 kmh 29.95 in1014.2 mb 0.00 in0.0 mm 0.00 in0.0 mm 0.00 in0.0 mm
04:10 AM 59.5°F15.3°C 53.0°F11.7°C 79% Calm Calm -- 29.95 in1014.2 mb 0.00 in0.0 mm 0.00 in0.0 mm 0.00 in0.0 mm
04:20 AM 59.5°F15.3°C 53.0°F11.7°C 79% 1.0 mph ESE1.6 kmh ESE 6.8 mph10.9 kmh 29.92 in1013.2 mb 0.00 in0.0 mm 0.00 in0.0 mm 0.00 in0.0 mm
04:30 AM 59.4°F15.2°C 53.2°F11.8°C 80% 0.5 mph E0.8 kmh E 4.7 mph7.6 kmh 29.92 in1013.2 mb 0.00 in0.0 mm 0.00 in0.0 mm 0.00 in0.0 mm
04:40 AM 59.5°F15.3°C 53.4°F11.9°C 80% 0.9 mph E1.4 kmh E 6.1 mph9.8 kmh 29.92 in1013.2 mb 0.00 in0.0 mm 0.00 in0.0 mm 0.00 in0.0 mm
04:50 AM 59.5°F15.3°C 53.7°F12.1°C 81% 0.2 mph S0.3 kmh S 2.5 mph4.0 kmh 29.95 in1014.2 mb 0.00 in0.0 mm 0.00 in0.0 mm 0.00 in0.0 mm
05:00 AM 59.5°F15.3°C 53.7°F12.1°C 81% 0.9 mph ESE1.4 kmh ESE 5.7 mph9.2 kmh 29.95 in1014.2 mb 0.00 in0.0 mm 0.00 in0.0 mm 0.00 in0.0 mm
05:10 AM 59.5°F15.3°C 54.0°F12.2°C 82% 1.9 mph E3.1 kmh E 7.2 mph11.6 kmh 29.95 in1014.2 mb 0.00 in0.0 mm 0.00 in0.0 mm 0.00 in0.0 mm
05:20 AM 59.5°F15.3°C 54.4°F12.4°C 83% 1.7 mph ESE2.7 kmh ESE 6.8 mph10.9 kmh 29.95 in1014.2 mb 0.00 in0.0 mm 0.00 in0.0 mm 0.00 in0.0 mm
05:30 AM 59.5°F15.3°C 54.7°F12.6°C 84% 2.0 mph SE3.2 kmh SE 11.8 mph19.0 kmh 29.95 in1014.2 mb 0.00 in0.0 mm 0.00 in0.0 mm 0.00 in0.0 mm
05:40 AM 59.5°F15.3°C 54.7°F12.6°C 84% 1.7 mph SE2.7 kmh SE 8.9 mph14.3 kmh 29.95 in1014.2 mb 0.00 in0.0 mm 0.00 in0.0 mm 0.00 in0.0 mm
05:50 AM 59.2°F15.1°C 55.0°F12.8°C 86% 2.3 mph SE3.7 kmh SE 8.6 mph13.8 kmh 29.95 in1014.2 mb 0.05 in1.3 mm 0.30 in7.6 mm 0.05 in1.3 mm
06:00 AM 59.0°F15.0°C 55.1°F12.8°C 87% 1.6 mph SSE2.6 kmh SSE 6.8 mph10.9 kmh 29.95 in1014.2 mb 0.05 in1.3 mm 0.00 in0.0 mm 0.05 in1.3 mm
06:10 AM 58.8°F14.9°C 55.3°F12.9°C 88% 1.4 mph SE2.3 kmh SE 6.4 mph10.3 kmh 29.95 in1014.2 mb 0.09 in2.3 mm 0.24 in6.1 mm 0.09 in2.3 mm
06:20 AM 58.6°F14.8°C 55.4°F13.0°C 89% Calm Calm -- 29.95 in1014.2 mb 0.09 in2.3 mm 0.00 in0.0 mm 0.09 in2.3 mm
06:30 AM 58.8°F14.9°C 55.9°F13.3°C 90% 3.0 mph SE4.8 kmh SE 8.9 mph14.3 kmh 29.95 in1014.2 mb 0.09 in2.3 mm 0.00 in0.0 mm 0.09 in2.3 mm
06:40 AM 59.0°F15.0°C 56.4°F13.6°C 91% 3.7 mph SE6.0 kmh SE 10.0 mph16.1 kmh 29.95 in1014.2 mb 0.09 in2.3 mm 0.00 in0.0 mm 0.09 in2.3 mm
06:50 AM 59.2°F15.1°C 56.6°F13.7°C 91% 3.4 mph SE5.5 kmh SE 10.0 mph16.1 kmh 29.98 in1015.2 mb 0.05 in1.3 mm 0.00 in0.0 mm 0.09 in2.3 mm
07:00 AM 59.2°F15.1°C 56.9°F13.8°C 92% 1.4 mph ESE2.3 kmh ESE 9.7 mph15.6 kmh 29.98 in1015.2 mb 0.05 in1.3 mm 0.00 in0.0 mm 0.09 in2.3 mm
07:10 AM 59.2°F15.1°C 56.9°F13.8°C 92% 1.3 mph SE2.1 kmh SE 8.6 mph13.8 kmh 29.98 in1015.2 mb 0.00 in0.0 mm 0.00 in0.0 mm 0.09 in2.3 mm
07:20 AM 59.4°F15.2°C 57.0°F13.9°C 92% 0.2 mph SSE0.3 kmh SSE 4.3 mph6.9 kmh 30.01 in1016.3 mb 0.00 in0.0 mm 0.00 in0.0 mm 0.09 in2.3 mm
07:30 AM 59.5°F15.3°C 57.2°F14.0°C 92% 1.4 mph SE2.3 kmh SE 8.6 mph13.8 kmh 30.01 in1016.3 mb 0.00 in0.0 mm 0.00 in0.0 mm 0.09 in2.3 mm
07:40 AM 59.7°F15.4°C 57.7°F14.3°C 93% 0.5 mph SE0.8 kmh SE 4.7 mph7.6 kmh 30.01 in1016.3 mb 0.00 in0.0 mm 0.00 in0.0 mm 0.09 in2.3 mm
07:50 AM 59.9°F15.5°C 57.9°F14.4°C 93% 1.6 mph SE2.6 kmh SE 7.9 mph12.7 kmh 30.01 in1016.3 mb 0.00 in0.0 mm 0.00 in0.0 mm 0.09 in2.3 mm
08:00 AM 60.1°F15.6°C 58.3°F14.6°C 94% 1.6 mph SSE2.6 kmh SSE 6.1 mph9.8 kmh 30.01 in1016.3 mb 0.00 in0.0 mm 0.00 in0.0 mm 0.09 in2.3 mm
08:10 AM 60.3°F15.7°C 58.5°F14.7°C 94% 1.8 mph S2.9 kmh S 9.7 mph15.6 kmh 30.01 in1016.3 mb 0.00 in0.0 mm 0.00 in0.0 mm 0.09 in2.3 mm
08:20 AM 60.6°F15.9°C 59.2°F15.1°C 95% 3.7 mph S6.0 kmh S 9.3 mph15.0 kmh 30.01 in1016.3 mb 0.00 in0.0 mm 0.00 in0.0 mm 0.09 in2.3 mm
08:30 AM 61.0°F16.1°C 59.5°F15.3°C 95% 1.7 mph WSW2.7 kmh WSW 7.5 mph12.1 kmh 30.04 in1017.3 mb 0.00 in0.0 mm 0.00 in0.0 mm 0.09 in2.3 mm
08:40 AM 60.8°F16.0°C 59.4°F15.2°C 95% 3.8 mph W6.1 kmh W 10.4 mph16.7 kmh 30.04 in1017.3 mb 0.00 in0.0 mm 0.00 in0.0 mm 0.09 in2.3 mm
08:50 AM 60.8°F16.0°C 59.4°F15.2°C 95% 3.1 mph W5.0 kmh W 9.3 mph15.0 kmh 30.01 in1016.3 mb 0.00 in0.0 mm 0.00 in0.0 mm 0.09 in2.3 mm
09:00 AM 61.0°F16.1°C 59.5°F15.3°C 95% 1.6 mph WNW2.6 kmh WNW 6.1 mph9.8 kmh 30.01 in1016.3 mb 0.00 in0.0 mm 0.00 in0.0 mm 0.09 in2.3 mm
09:10 AM 61.0°F16.1°C 59.5°F15.3°C 95% 2.5 mph WNW4.0 kmh WNW 9.3 mph15.0 kmh 30.01 in1016.3 mb 0.00 in0.0 mm 0.00 in0.0 mm 0.09 in2.3 mm
09:20 AM 61.0°F16.1°C 59.5°F15.3°C 95% 2.3 mph NW3.7 kmh NW 11.1 mph17.9 kmh 30.01 in1016.3 mb 0.00 in0.0 mm 0.00 in0.0 mm 0.09 in2.3 mm
09:30 AM 61.0°F16.1°C 59.5°F15.3°C 95% 2.8 mph W4.5 kmh W 9.3 mph15.0 kmh 30.01 in1016.3 mb 0.00 in0.0 mm 0.00 in0.0 mm 0.09 in2.3 mm
09:40 AM 61.0°F16.1°C 59.2°F15.1°C 94% 1.8 mph W2.9 kmh W 7.5 mph12.1 kmh 30.01 in1016.3 mb 0.00 in0.0 mm 0.00 in0.0 mm 0.09 in2.3 mm
09:50 AM 61.2°F16.2°C 59.4°F15.2°C 94% 2.6 mph WNW4.2 kmh WNW 8.6 mph13.8 kmh 30.01 in1016.3 mb 0.00 in0.0 mm 0.00 in0.0 mm 0.09 in2.3 mm
10:00 AM 61.0°F16.1°C 59.2°F15.1°C 94% 4.5 mph W7.2 kmh W 14.0 mph22.5 kmh 30.04 in1017.3 mb 0.00 in0.0 mm 0.00 in0.0 mm 0.09 in2.3 mm
10:10 AM 61.0°F16.1°C 59.2°F15.1°C 94% 4.2 mph WNW6.8 kmh WNW 15.4 mph24.8 kmh 30.04 in1017.3 mb 0.00 in0.0 mm 0.00 in0.0 mm 0.09 in2.3 mm
10:20 AM 61.0°F16.1°C 58.9°F14.9°C 93% 4.1 mph WNW6.6 kmh WNW 14.0 mph22.5 kmh 30.04 in1017.3 mb 0.00 in0.0 mm 0.00 in0.0 mm 0.09 in2.3 mm
10:30 AM 61.0°F16.1°C 58.9°F14.9°C 93% 3.8 mph NW6.1 kmh NW 13.6 mph21.9 kmh 30.04 in1017.3 mb 0.00 in0.0 mm 0.00 in0.0 mm 0.09 in2.3 mm
10:40 AM 60.8°F16.0°C 58.5°F14.7°C 92% 5.1 mph WNW8.2 kmh WNW 14.0 mph22.5 kmh 30.04 in1017.3 mb 0.00 in0.0 mm 0.00 in0.0 mm 0.09 in2.3 mm
10:50 AM 60.8°F16.0°C 58.5°F14.7°C 92% 3.3 mph WNW5.3 kmh WNW 11.8 mph19.0 kmh 30.07 in1018.3 mb 0.00 in0.0 mm 0.00 in0.0 mm 0.09 in2.3 mm
11:00 AM 60.8°F16.0°C 58.5°F14.7°C 92% 3.5 mph WNW5.6 kmh WNW 12.9 mph20.8 kmh 30.07 in1018.3 mb 0.00 in0.0 mm 0.00 in0.0 mm 0.09 in2.3 mm
11:10 AM 61.2°F16.2°C 59.1°F15.1°C 93% 4.7 mph WNW7.6 kmh WNW 14.7 mph23.7 kmh 30.07 in1018.3 mb 0.00 in0.0 mm 0.00 in0.0 mm 0.09 in2.3 mm
11:20 AM 61.2°F16.2°C 58.8°F14.9°C 92% 3.6 mph WNW5.8 kmh WNW 9.3 mph15.0 kmh 30.07 in1018.3 mb 0.00 in0.0 mm 0.00 in0.0 mm 0.09 in2.3 mm
11:30 AM 61.3°F16.3°C 59.0°F15.0°C 92% 1.5 mph WNW2.4 kmh WNW 8.9 mph14.3 kmh 30.07 in1018.3 mb 0.00 in0.0 mm 0.00 in0.0 mm 0.09 in2.3 mm
11:40 AM 61.3°F16.3°C 58.7°F14.8°C 91% 3.3 mph WNW5.3 kmh WNW 10.0 mph16.1 kmh 30.07 in1018.3 mb 0.00 in0.0 mm 0.00 in0.0 mm 0.09 in2.3 mm
11:50 AM 61.3°F16.3°C 58.4°F14.7°C 90% 4.8 mph WNW7.7 kmh WNW 15.4 mph24.8 kmh 30.07 in1018.3 mb 0.00 in0.0 mm 0.00 in0.0 mm 0.09 in2.3 mm
12:00 PM 61.3°F16.3°C 58.1°F14.5°C 89% 4.1 mph W6.6 kmh W 11.8 mph19.0 kmh 30.07 in1018.3 mb 0.00 in0.0 mm 0.00 in0.0 mm 0.09 in2.3 mm
12:10 PM 61.3°F16.3°C 57.8°F14.3°C 88% 5.4 mph NW8.7 kmh NW 12.9 mph20.8 kmh 30.07 in1018.3 mb 0.00 in0.0 mm 0.00 in0.0 mm 0.09 in2.3 mm
12:20 PM 61.9°F16.6°C 58.3°F14.6°C 88% 5.3 mph W8.5 kmh W 12.9 mph20.8 kmh 30.09 in1019.0 mb 0.00 in0.0 mm 0.00 in0.0 mm 0.09 in2.3 mm
12:30 PM 62.8°F17.1°C 59.2°F15.1°C 88% 5.0 mph WNW8.0 kmh WNW 12.5 mph20.1 kmh 30.07 in1018.3 mb 0.00 in0.0 mm 0.00 in0.0 mm 0.09 in2.3 mm
12:40 PM 63.0°F17.2°C 58.7°F14.8°C 86% 4.7 mph WNW7.6 kmh WNW 12.5 mph20.1 kmh 30.07 in1018.3 mb 0.00 in0.0 mm 0.00 in0.0 mm 0.09 in2.3 mm
12:50 PM 63.3°F17.4°C 58.7°F14.8°C 85% 4.8 mph WNW7.7 kmh WNW 12.5 mph20.1 kmh 30.04 in1017.3 mb 0.00 in0.0 mm 0.00 in0.0 mm 0.09 in2.3 mm
01:00 PM 64.0°F17.8°C 59.1°F15.1°C 84% 5.9 mph WNW9.5 kmh WNW 19.0 mph30.6 kmh 30.07 in1018.3 mb 0.00 in0.0 mm 0.00 in0.0 mm 0.09 in2.3 mm
01:10 PM 65.3°F18.5°C 60.0°F15.6°C 83% 4.0 mph NW6.4 kmh NW 12.9 mph20.8 kmh 30.07 in1018.3 mb 0.00 in0.0 mm 0.00 in0.0 mm 0.09 in2.3 mm
01:20 PM 65.7°F18.7°C 58.6°F14.8°C 78% 5.5 mph WNW8.9 kmh WNW 12.9 mph20.8 kmh 30.07 in1018.3 mb 0.00 in0.0 mm 0.00 in0.0 mm 0.09 in2.3 mm
01:30 PM 66.2°F19.0°C 58.8°F14.9°C 77% 4.8 mph WNW7.7 kmh WNW 12.5 mph20.1 kmh 30.09 in1019.0 mb 0.00 in0.0 mm 0.00 in0.0 mm 0.09 in2.3 mm
01:40 PM 66.7°F19.3°C 59.3°F15.2°C 77% 5.1 mph WNW8.2 kmh WNW 15.7 mph25.3 kmh 30.09 in1019.0 mb 0.00 in0.0 mm 0.00 in0.0 mm 0.09 in2.3 mm
01:50 PM 67.6°F19.8°C 59.8°F15.4°C 76% 3.9 mph NW6.3 kmh NW 11.8 mph19.0 kmh 30.09 in1019.0 mb 0.00 in0.0 mm 0.00 in0.0 mm 0.09 in2.3 mm
02:00 PM 68.0°F20.0°C 58.2°F14.6°C 71% 5.8 mph W9.3 kmh W 15.4 mph24.8 kmh 30.09 in1019.0 mb 0.00 in0.0 mm 0.00 in0.0 mm 0.09 in2.3 mm
02:10 PM 68.5°F20.3°C 59.2°F15.1°C 72% 5.9 mph WNW9.5 kmh WNW 11.8 mph19.0 kmh 30.09 in1019.0 mb 0.00 in0.0 mm 0.00 in0.0 mm 0.09 in2.3 mm
02:20 PM 69.1°F20.6°C 59.7°F15.4°C 72% 3.8 mph WNW6.1 kmh WNW 10.4 mph16.7 kmh 30.09 in1019.0 mb 0.00 in0.0 mm 0.00 in0.0 mm 0.09 in2.3 mm
02:30 PM 69.1°F20.6°C 58.9°F14.9°C 70% 4.9 mph WNW7.9 kmh WNW 14.0 mph22.5 kmh 30.12 in1020.0 mb 0.00 in0.0 mm 0.00 in0.0 mm 0.09 in2.3 mm
02:40 PM 68.4°F20.2°C 57.8°F14.3°C 69% 5.3 mph NW8.5 kmh NW 13.6 mph21.9 kmh 30.12 in1020.0 mb 0.00 in0.0 mm 0.00 in0.0 mm 0.09 in2.3 mm
02:50 PM 68.0°F20.0°C 57.0°F13.9°C 68% 4.6 mph WNW7.4 kmh WNW 12.2 mph19.6 kmh 30.12 in1020.0 mb 0.00 in0.0 mm 0.00 in0.0 mm 0.09 in2.3 mm
03:00 PM 67.6°F19.8°C 56.7°F13.7°C 68% 4.1 mph WNW6.6 kmh WNW 14.3 mph23.0 kmh 30.12 in1020.0 mb 0.00 in0.0 mm 0.00 in0.0 mm 0.09 in2.3 mm
03:10 PM 67.5°F19.7°C 56.5°F13.6°C 68% 4.6 mph W7.4 kmh W 14.0 mph22.5 kmh 30.12 in1020.0 mb 0.00 in0.0 mm 0.00 in0.0 mm 0.09 in2.3 mm
03:20 PM 67.5°F19.7°C 56.1°F13.4°C 67% 4.7 mph W7.6 kmh W 16.1 mph25.9 kmh 30.12 in1020.0 mb 0.00 in0.0 mm 0.00 in0.0 mm 0.09 in2.3 mm
03:30 PM 67.5°F19.7°C 55.7°F13.2°C 66% 3.6 mph NW5.8 kmh NW 9.7 mph15.6 kmh 30.12 in1020.0 mb 0.00 in0.0 mm 0.00 in0.0 mm 0.09 in2.3 mm
03:40 PM 67.5°F19.7°C 56.1°F13.4°C 67% 3.8 mph NW6.1 kmh NW 9.3 mph15.0 kmh 30.12 in1020.0 mb 0.00 in0.0 mm 0.00 in0.0 mm 0.09 in2.3 mm
03:50 PM 67.5°F19.7°C 54.9°F12.7°C 64% 4.5 mph WNW7.2 kmh WNW 12.9 mph20.8 kmh 30.12 in1020.0 mb 0.00 in0.0 mm 0.00 in0.0 mm 0.09 in2.3 mm
04:00 PM 67.5°F19.7°C 55.3°F12.9°C 65% 4.9 mph NW7.9 kmh NW 12.9 mph20.8 kmh 30.12 in1020.0 mb 0.00 in0.0 mm 0.00 in0.0 mm 0.09 in2.3 mm
04:10 PM 67.6°F19.8°C 54.6°F12.6°C 63% 4.5 mph WNW7.2 kmh WNW 12.9 mph20.8 kmh 30.12 in1020.0 mb 0.00 in0.0 mm 0.00 in0.0 mm 0.09 in2.3 mm
04:20 PM 68.0°F20.0°C 55.4°F13.0°C 64% 2.9 mph WNW4.7 kmh WNW 10.0 mph16.1 kmh 30.12 in1020.0 mb 0.00 in0.0 mm 0.00 in0.0 mm 0.09 in2.3 mm
04:30 PM 68.2°F20.1°C 55.1°F12.8°C 63% 3.9 mph NW6.3 kmh NW 10.4 mph16.7 kmh 30.12 in1020.0 mb 0.00 in0.0 mm 0.00 in0.0 mm 0.09 in2.3 mm
04:40 PM 68.5°F20.3°C 55.4°F13.0°C 63% 4.1 mph W6.6 kmh W 14.0 mph22.5 kmh 30.12 in1020.0 mb 0.00 in0.0 mm 0.00 in0.0 mm 0.09 in2.3 mm
04:50 PM 68.7°F20.4°C 54.7°F12.6°C 61% 3.8 mph W6.1 kmh W 12.2 mph19.6 kmh 30.12 in1020.0 mb 0.00 in0.0 mm 0.00 in0.0 mm 0.09 in2.3 mm
05:00 PM 68.7°F20.4°C 55.2°F12.9°C 62% 1.4 mph WNW2.3 kmh WNW 6.1 mph9.8 kmh 30.12 in1020.0 mb 0.00 in0.0 mm 0.00 in0.0 mm 0.09 in2.3 mm
05:10 PM 68.2°F20.1°C 55.1°F12.8°C 63% 3.0 mph W4.8 kmh W 10.0 mph16.1 kmh 30.12 in1020.0 mb 0.00 in0.0 mm 0.00 in0.0 mm 0.09 in2.3 mm
05:20 PM 66.7°F19.3°C 54.6°F12.6°C 65% 2.8 mph WSW4.5 kmh WSW 8.6 mph13.8 kmh 30.12 in1020.0 mb 0.00 in0.0 mm 0.00 in0.0 mm 0.09 in2.3 mm
05:30 PM 65.8°F18.8°C 55.8°F13.2°C 70% 3.4 mph SSW5.5 kmh SSW 10.7 mph17.2 kmh 30.12 in1020.0 mb 0.00 in0.0 mm 0.00 in0.0 mm 0.09 in2.3 mm
05:40 PM 65.3°F18.5°C 55.7°F13.2°C 71% 3.5 mph SW5.6 kmh SW 8.9 mph14.3 kmh 30.12 in1020.0 mb 0.00 in0.0 mm 0.00 in0.0 mm 0.09 in2.3 mm
05:50 PM 64.8°F18.2°C 55.9°F13.3°C 73% 3.6 mph SW5.8 kmh SW 7.9 mph12.7 kmh 30.12 in1020.0 mb 0.00 in0.0 mm 0.00 in0.0 mm 0.09 in2.3 mm
06:00 PM 64.8°F18.2°C 56.6°F13.7°C 75% 2.4 mph SW3.9 kmh SW 6.8 mph10.9 kmh 30.12 in1020.0 mb 0.00 in0.0 mm 0.00 in0.0 mm 0.09 in2.3 mm
06:10 PM 64.9°F18.3°C 57.2°F14.0°C 76% 1.6 mph WSW2.6 kmh WSW 6.4 mph10.3 kmh 30.12 in1020.0 mb 0.00 in0.0 mm 0.00 in0.0 mm 0.09 in2.3 mm
06:20 PM 64.8°F18.2°C 56.6°F13.7°C 75% 2.1 mph W3.4 kmh W 6.8 mph10.9 kmh 30.12 in1020.0 mb 0.00 in0.0 mm 0.00 in0.0 mm 0.09 in2.3 mm
06:30 PM 65.1°F18.4°C 57.4°F14.1°C 76% 2.4 mph WSW3.9 kmh WSW 10.4 mph16.7 kmh 30.12 in1020.0 mb 0.00 in0.0 mm 0.00 in0.0 mm 0.09 in2.3 mm
06:40 PM 64.9°F18.3°C 56.8°F13.8°C 75% 1.7 mph WSW2.7 kmh WSW 7.9 mph12.7 kmh 30.12 in1020.0 mb 0.00 in0.0 mm 0.00 in0.0 mm 0.09 in2.3 mm
06:50 PM 64.6°F18.1°C 56.5°F13.6°C 75% 1.1 mph W1.8 kmh W 6.8 mph10.9 kmh 30.12 in1020.0 mb 0.00 in0.0 mm 0.00 in0.0 mm 0.09 in2.3 mm
07:00 PM 64.2°F17.9°C 56.1°F13.4°C 75% 1.9 mph SW3.1 kmh SW 6.4 mph10.3 kmh 30.15 in1021.0 mb 0.00 in0.0 mm 0.00 in0.0 mm 0.09 in2.3 mm
07:10 PM 64.0°F17.8°C 56.3°F13.5°C 76% 0.4 mph SSW0.6 kmh SSW 4.7 mph7.6 kmh 30.15 in1021.0 mb 0.00 in0.0 mm 0.00 in0.0 mm 0.09 in2.3 mm
07:20 PM 63.9°F17.7°C 56.1°F13.4°C 76% 1.8 mph WSW2.9 kmh WSW 6.8 mph10.9 kmh 30.12 in1020.0 mb 0.00 in0.0 mm 0.00 in0.0 mm 0.09 in2.3 mm
07:30 PM 63.7°F17.6°C 56.3°F13.5°C 77% 1.1 mph SW1.8 kmh SW 8.6 mph13.8 kmh 30.12 in1020.0 mb 0.00 in0.0 mm 0.00 in0.0 mm 0.09 in2.3 mm
07:40 PM 63.5°F17.5°C 56.2°F13.4°C 77% 2.0 mph SW3.2 kmh SW 4.7 mph7.6 kmh 30.12 in1020.0 mb 0.00 in0.0 mm 0.00 in0.0 mm 0.09 in2.3 mm
07:50 PM 63.1°F17.3°C 56.2°F13.4°C 78% 0.3 mph WSW0.5 kmh WSW 4.3 mph6.9 kmh 30.12 in1020.0 mb 0.00 in0.0 mm 0.00 in0.0 mm 0.09 in2.3 mm
08:00 PM 63.0°F17.2°C 56.0°F13.3°C 78% 0.7 mph WSW1.1 kmh WSW 5.4 mph8.7 kmh 30.12 in1020.0 mb 0.00 in0.0 mm 0.00 in0.0 mm 0.09 in2.3 mm
08:10 PM 62.4°F16.9°C 55.8°F13.2°C 79% 0.4 mph SSW0.6 kmh SSW 4.3 mph6.9 kmh 30.12 in1020.0 mb 0.00 in0.0 mm 0.00 in0.0 mm 0.09 in2.3 mm
08:20 PM 62.2°F16.8°C 56.0°F13.3°C 80% 2.3 mph SW3.7 kmh SW 6.8 mph10.9 kmh 30.12 in1020.0 mb 0.00 in0.0 mm 0.00 in0.0 mm 0.09 in2.3 mm
08:30 PM 62.2°F16.8°C 56.3°F13.5°C 81% 2.7 mph SW4.3 kmh SW 7.9 mph12.7 kmh 30.12 in1020.0 mb 0.00 in0.0 mm 0.00 in0.0 mm 0.09 in2.3 mm
08:40 PM 62.1°F16.7°C 56.2°F13.4°C 81% 2.8 mph WSW4.5 kmh WSW 6.1 mph9.8 kmh 30.12 in1020.0 mb 0.00 in0.0 mm 0.00 in0.0 mm 0.09 in2.3 mm
08:50 PM 61.9°F16.6°C 56.3°F13.5°C 82% 2.1 mph SW3.4 kmh SW 6.1 mph9.8 kmh 30.12 in1020.0 mb 0.00 in0.0 mm 0.00 in0.0 mm 0.09 in2.3 mm
09:00 PM 61.3°F16.3°C 56.1°F13.4°C 83% 3.5 mph S5.6 kmh S 8.6 mph13.8 kmh 30.12 in1020.0 mb 0.00 in0.0 mm 0.00 in0.0 mm 0.09 in2.3 mm
09:10 PM 61.0°F16.1°C 56.1°F13.4°C 84% 2.9 mph SW4.7 kmh SW 7.9 mph12.7 kmh 30.12 in1020.0 mb 0.00 in0.0 mm 0.00 in0.0 mm 0.09 in2.3 mm
09:20 PM 60.4°F15.8°C 55.6°F13.1°C 84% 2.2 mph S3.5 kmh S 6.8 mph10.9 kmh 30.12 in1020.0 mb 0.00 in0.0 mm 0.00 in0.0 mm 0.09 in2.3 mm
09:30 PM 59.9°F15.5°C 55.1°F12.8°C 84% 3.2 mph S5.1 kmh S 7.5 mph12.1 kmh 30.09 in1019.0 mb 0.00 in0.0 mm 0.00 in0.0 mm 0.09 in2.3 mm
09:40 PM 59.5°F15.3°C 55.0°F12.8°C 85% 3.1 mph SSW5.0 kmh SSW 7.9 mph12.7 kmh 30.09 in1019.0 mb 0.00 in0.0 mm 0.00 in0.0 mm 0.09 in2.3 mm
09:50 PM 59.0°F15.0°C 54.5°F12.5°C 85% 1.5 mph SSW2.4 kmh SSW 6.8 mph10.9 kmh 30.12 in1020.0 mb 0.00 in0.0 mm 0.00 in0.0 mm 0.09 in2.3 mm
10:00 PM 58.8°F14.9°C 54.3°F12.4°C 85% 1.8 mph WSW2.9 kmh WSW 5.0 mph8.0 kmh 30.09 in1019.0 mb 0.00 in0.0 mm 0.00 in0.0 mm 0.09 in2.3 mm
10:10 PM 58.5°F14.7°C 54.3°F12.4°C 86% 2.7 mph S4.3 kmh S 8.6 mph13.8 kmh 30.09 in1019.0 mb 0.00 in0.0 mm 0.00 in0.0 mm 0.09 in2.3 mm
10:20 PM 58.5°F14.7°C 54.6°F12.6°C 87% 2.8 mph SSW4.5 kmh SSW 8.9 mph14.3 kmh 30.09 in1019.0 mb 0.00 in0.0 mm 0.00 in0.0 mm 0.09 in2.3 mm
10:30 PM 58.3°F14.6°C 54.4°F12.4°C 87% 1.8 mph S2.9 kmh S 8.9 mph14.3 kmh 30.12 in1020.0 mb 0.00 in0.0 mm 0.00 in0.0 mm 0.09 in2.3 mm
10:40 PM 58.3°F14.6°C 54.7°F12.6°C 88% 1.3 mph WSW2.1 kmh WSW 5.0 mph8.0 kmh 30.12 in1020.0 mb 0.00 in0.0 mm 0.00 in0.0 mm 0.09 in2.3 mm
10:50 PM 58.6°F14.8°C 55.4°F13.0°C 89% 0.8 mph SW1.3 kmh SW 4.7 mph7.6 kmh 30.09 in1019.0 mb 0.00 in0.0 mm 0.00 in0.0 mm 0.09 in2.3 mm
11:00 PM 58.8°F14.9°C 55.9°F13.3°C 90% 0.9 mph S1.4 kmh S 5.4 mph8.7 kmh 30.09 in1019.0 mb 0.00 in0.0 mm 0.00 in0.0 mm 0.09 in2.3 mm
11:10 PM 58.8°F14.9°C 55.9°F13.3°C 90% 0.8 mph WSW1.3 kmh WSW 3.9 mph6.3 kmh 30.09 in1019.0 mb 0.00 in0.0 mm 0.00 in0.0 mm 0.09 in2.3 mm
11:20 PM 58.6°F14.8°C 55.4°F13.0°C 89% 0.4 mph S0.6 kmh S 3.9 mph6.3 kmh 30.12 in1020.0 mb 0.00 in0.0 mm 0.00 in0.0 mm 0.09 in2.3 mm
11:30 PM 58.3°F14.6°C 55.1°F12.8°C 89% 0.2 mph S0.3 kmh S 3.2 mph5.1 kmh 30.12 in1020.0 mb 0.00 in0.0 mm 0.00 in0.0 mm 0.09 in2.3 mm
11:40 PM 57.9°F14.4°C 54.4°F12.4°C 88% 0.2 mph SW0.3 kmh SW 1.8 mph2.9 kmh 30.12 in1020.0 mb 0.00 in0.0 mm 0.00 in0.0 mm 0.09 in2.3 mm
11:50 PM 57.6°F14.2°C 54.3°F12.4°C 89% 1.6 mph S2.6 kmh S 6.4 mph10.3 kmh 30.12 in1020.0 mb 0.00 in0.0 mm 0.00 in0.0 mm 0.09 in2.3 mm